sensor_id;sensor_type;location;lat;lon;timestamp;pressure;altitude;pressure_sealevel;temperature;humidity
77526;BME280;66627;29.424;-98.496;2023-10-08T00:00:30;99594.54;;;26.41;23.83
77526;BME280;66627;29.424;-98.496;2023-10-08T00:02:55;99592.95;;;25.93;23.57
77526;BME280;66627;29.424;-98.496;2023-10-08T00:05:20;99590.63;;;25.55;23.60
77526;BME280;66627;29.424;-98.496;2023-10-08T00:07:46;99592.23;;;25.34;23.98
77526;BME280;66627;29.424;-98.496;2023-10-08T00:10:11;99591.66;;;24.96;24.03
77526;BME280;66627;29.424;-98.496;2023-10-08T00:12:36;99594.29;;;25.43;22.33
77526;BME280;66627;29.424;-98.496;2023-10-08T00:15:01;99595.18;;;24.98;23.76
77526;BME280;66627;29.424;-98.496;2023-10-08T00:17:26;99592.49;;;25.59;23.88
77526;BME280;66627;29.424;-98.496;2023-10-08T00:19:52;99591.52;;;24.91;23.62
77526;BME280;66627;29.424;-98.496;2023-10-08T00:22:17;99592.64;;;25.16;23.46
77526;BME280;66627;29.424;-98.496;2023-10-08T00:24:42;99597.64;;;25.04;22.64
77526;BME280;66627;29.424;-98.496;2023-10-08T00:27:08;99598.89;;;25.35;24.78
77526;BME280;66627;29.424;-98.496;2023-10-08T00:29:33;99601.66;;;25.50;24.22
77526;BME280;66627;29.424;-98.496;2023-10-08T00:31:57;99603.17;;;25.32;23.01
77526;BME280;66627;29.424;-98.496;2023-10-08T00:34:23;99607.40;;;25.73;23.00
77526;BME280;66627;29.424;-98.496;2023-10-08T00:36:48;99607.30;;;24.81;23.42
77526;BME280;66627;29.424;-98.496;2023-10-08T00:39:14;99609.60;;;24.61;25.26
77526;BME280;66627;29.424;-98.496;2023-10-08T00:41:38;99612.94;;;24.47;23.58
77526;BME280;66627;29.424;-98.496;2023-10-08T00:44:08;99616.27;;;25.22;24.18
77526;BME280;66627;29.424;-98.496;2023-10-08T00:46:29;99616.91;;;25.20;24.79
77526;BME280;66627;29.424;-98.496;2023-10-08T00:48:54;99616.50;;;25.28;24.46
77526;BME280;66627;29.424;-98.496;2023-10-08T00:51:19;99612.42;;;25.20;23.97
77526;BME280;66627;29.424;-98.496;2023-10-08T00:53:45;99624.39;;;24.90;23.66
77526;BME280;66627;29.424;-98.496;2023-10-08T00:56:09;99633.55;;;25.38;23.91
77526;BME280;66627;29.424;-98.496;2023-10-08T00:58:34;99636.88;;;24.79;23.81
77526;BME280;66627;29.424;-98.496;2023-10-08T01:01:00;99637.37;;;24.70;24.90
77526;BME280;66627;29.424;-98.496;2023-10-08T01:03:25;99632.22;;;25.06;23.81
77526;BME280;66627;29.424;-98.496;2023-10-08T01:05:50;99631.00;;;24.36;25.06
77526;BME280;66627;29.424;-98.496;2023-10-08T01:08:15;99633.80;;;25.01;23.12
77526;BME280;66627;29.424;-98.496;2023-10-08T01:10:40;99633.08;;;24.73;23.92
77526;BME280;66627;29.424;-98.496;2023-10-08T01:13:05;99638.61;;;24.95;24.31
77526;BME280;66627;29.424;-98.496;2023-10-08T01:15:31;99647.18;;;24.63;24.77
77526;BME280;66627;29.424;-98.496;2023-10-08T01:17:56;99648.24;;;24.40;24.63
77526;BME280;66627;29.424;-98.496;2023-10-08T01:20:21;99638.35;;;24.38;23.74
77526;BME280;66627;29.424;-98.496;2023-10-08T01:22:46;99637.18;;;24.83;22.98
77526;BME280;66627;29.424;-98.496;2023-10-08T01:25:11;99643.91;;;24.60;23.03
77526;BME280;66627;29.424;-98.496;2023-10-08T01:27:36;99644.15;;;24.54;23.95
77526;BME280;66627;29.424;-98.496;2023-10-08T01:30:02;99649.30;;;24.98;24.67
77526;BME280;66627;29.424;-98.496;2023-10-08T01:32:27;99648.09;;;24.30;24.29
77526;BME280;66627;29.424;-98.496;2023-10-08T01:34:52;99647.85;;;24.70;24.03
77526;BME280;66627;29.424;-98.496;2023-10-08T01:37:18;99646.47;;;24.85;24.70
77526;BME280;66627;29.424;-98.496;2023-10-08T01:39:43;99641.51;;;24.71;24.06
77526;BME280;66627;29.424;-98.496;2023-10-08T01:42:07;99639.79;;;24.91;24.04
77526;BME280;66627;29.424;-98.496;2023-10-08T01:44:33;99642.81;;;24.36;24.48
77526;BME280;66627;29.424;-98.496;2023-10-08T01:46:58;99646.70;;;24.28;24.49
77526;BME280;66627;29.424;-98.496;2023-10-08T01:49:23;99656.61;;;24.87;23.76
77526;BME280;66627;29.424;-98.496;2023-10-08T01:51:49;99660.54;;;24.35;25.29
77526;BME280;66627;29.424;-98.496;2023-10-08T01:54:14;99658.29;;;24.67;26.25
77526;BME280;66627;29.424;-98.496;2023-10-08T01:56:40;99655.67;;;24.76;25.13
77526;BME280;66627;29.424;-98.496;2023-10-08T01:59:04;99661.59;;;24.76;24.49
77526;BME280;66627;29.424;-98.496;2023-10-08T02:01:29;99662.10;;;24.48;24.02
77526;BME280;66627;29.424;-98.496;2023-10-08T02:03:54;99662.64;;;24.88;25.00
77526;BME280;66627;29.424;-98.496;2023-10-08T02:06:19;99663.38;;;24.47;25.18
77526;BME280;66627;29.424;-98.496;2023-10-08T02:08:44;99655.58;;;24.50;25.96
77526;BME280;66627;29.424;-98.496;2023-10-08T02:13:35;99651.90;;;24.54;25.17
77526;BME280;66627;29.424;-98.496;2023-10-08T02:16:00;99655.25;;;24.38;25.22
77526;BME280;66627;29.424;-98.496;2023-10-08T02:18:25;99662.53;;;24.25;25.59
77526;BME280;66627;29.424;-98.496;2023-10-08T02:20:51;99670.41;;;23.82;25.07
77526;BME280;66627;29.424;-98.496;2023-10-08T02:23:17;99675.11;;;23.87;25.78
77526;BME280;66627;29.424;-98.496;2023-10-08T02:25:42;99670.38;;;23.78;26.21
77526;BME280;66627;29.424;-98.496;2023-10-08T02:28:07;99667.63;;;23.90;26.14
77526;BME280;66627;29.424;-98.496;2023-10-08T02:30:33;99663.89;;;23.84;26.56
77526;BME280;66627;29.424;-98.496;2023-10-08T02:32:58;99664.04;;;23.73;26.47
77526;BME280;66627;29.424;-98.496;2023-10-08T02:35:24;99668.44;;;23.92;26.39
77526;BME280;66627;29.424;-98.496;2023-10-08T02:37:49;99664.75;;;24.02;26.06
77526;BME280;66627;29.424;-98.496;2023-10-08T02:40:14;99665.74;;;23.94;26.93
77526;BME280;66627;29.424;-98.496;2023-10-08T02:42:40;99666.25;;;24.25;26.09
77526;BME280;66627;29.424;-98.496;2023-10-08T02:45:05;99663.73;;;23.62;26.48
77526;BME280;66627;29.424;-98.496;2023-10-08T02:47:30;99663.74;;;23.18;26.83
77526;BME280;66627;29.424;-98.496;2023-10-08T02:49:56;99660.59;;;23.87;27.85
77526;BME280;66627;29.424;-98.496;2023-10-08T02:52:21;99655.23;;;23.84;27.70
77526;BME280;66627;29.424;-98.496;2023-10-08T02:54:46;99654.36;;;23.39;26.30
77526;BME280;66627;29.424;-98.496;2023-10-08T02:57:12;99655.61;;;23.60;26.54
77526;BME280;66627;29.424;-98.496;2023-10-08T02:59:37;99646.22;;;23.19;28.78
77526;BME280;66627;29.424;-98.496;2023-10-08T03:02:02;99643.30;;;23.29;28.00
77526;BME280;66627;29.424;-98.496;2023-10-08T03:04:27;99643.86;;;23.38;28.10
77526;BME280;66627;29.424;-98.496;2023-10-08T03:06:53;99644.16;;;23.13;29.05
77526;BME280;66627;29.424;-98.496;2023-10-08T03:09:19;99645.56;;;23.26;28.68
77526;BME280;66627;29.424;-98.496;2023-10-08T03:11:43;99645.01;;;23.00;28.13
77526;BME280;66627;29.424;-98.496;2023-10-08T03:14:08;99642.33;;;23.39;27.08
77526;BME280;66627;29.424;-98.496;2023-10-08T03:16:33;99643.78;;;23.16;26.64
77526;BME280;66627;29.424;-98.496;2023-10-08T03:18:58;99641.48;;;23.02;28.84
77526;BME280;66627;29.424;-98.496;2023-10-08T03:21:24;99639.60;;;23.16;27.85
77526;BME280;66627;29.424;-98.496;2023-10-08T03:23:49;99644.13;;;23.15;26.89
77526;BME280;66627;29.424;-98.496;2023-10-08T03:26:15;99647.04;;;22.78;27.54
77526;BME280;66627;29.424;-98.496;2023-10-08T03:28:40;99650.81;;;23.00;27.39
77526;BME280;66627;29.424;-98.496;2023-10-08T03:31:05;99653.71;;;23.15;26.57
77526;BME280;66627;29.424;-98.496;2023-10-08T03:33:33;99649.46;;;23.13;26.80
77526;BME280;66627;29.424;-98.496;2023-10-08T03:35:56;99642.72;;;22.04;25.41
77526;BME280;66627;29.424;-98.496;2023-10-08T03:38:22;99643.52;;;21.65;26.27
77526;BME280;66627;29.424;-98.496;2023-10-08T03:40:47;99652.69;;;22.64;26.56
77526;BME280;66627;29.424;-98.496;2023-10-08T03:43:11;99658.54;;;22.67;26.11
77526;BME280;66627;29.424;-98.496;2023-10-08T03:45:37;99657.80;;;22.24;27.19
77526;BME280;66627;29.424;-98.496;2023-10-08T03:48:02;99655.32;;;22.27;26.22
77526;BME280;66627;29.424;-98.496;2023-10-08T03:50:27;99656.12;;;21.44;26.62
77526;BME280;66627;29.424;-98.496;2023-10-08T03:52:52;99660.98;;;21.92;25.33
77526;BME280;66627;29.424;-98.496;2023-10-08T03:55:18;99663.16;;;22.05;26.68
77526;BME280;66627;29.424;-98.496;2023-10-08T03:57:43;99653.07;;;22.35;26.97
77526;BME280;66627;29.424;-98.496;2023-10-08T04:00:09;99649.87;;;22.66;26.52
77526;BME280;66627;29.424;-98.496;2023-10-08T04:02:34;99651.22;;;22.07;25.79
77526;BME280;66627;29.424;-98.496;2023-10-08T04:04:59;99654.63;;;22.22;25.49
77526;BME280;66627;29.424;-98.496;2023-10-08T04:07:25;99654.82;;;21.78;26.77
77526;BME280;66627;29.424;-98.496;2023-10-08T04:09:50;99660.17;;;22.46;25.48
77526;BME280;66627;29.424;-98.496;2023-10-08T04:12:14;99661.82;;;22.50;25.26
77526;BME280;66627;29.424;-98.496;2023-10-08T04:14:39;99663.03;;;21.86;24.54
77526;BME280;66627;29.424;-98.496;2023-10-08T04:17:04;99662.62;;;22.00;25.49
77526;BME280;66627;29.424;-98.496;2023-10-08T04:19:31;99661.20;;;22.52;26.11
77526;BME280;66627;29.424;-98.496;2023-10-08T04:21:55;99662.35;;;22.65;25.55
77526;BME280;66627;29.424;-98.496;2023-10-08T04:24:20;99665.55;;;22.65;26.23
77526;BME280;66627;29.424;-98.496;2023-10-08T04:26:45;99658.79;;;22.05;25.85
77526;BME280;66627;29.424;-98.496;2023-10-08T04:29:10;99655.82;;;22.75;25.44
77526;BME280;66627;29.424;-98.496;2023-10-08T04:31:35;99657.39;;;22.84;26.00
77526;BME280;66627;29.424;-98.496;2023-10-08T04:34:00;99654.74;;;22.55;25.95
77526;BME280;66627;29.424;-98.496;2023-10-08T04:36:26;99657.50;;;22.70;26.62
77526;BME280;66627;29.424;-98.496;2023-10-08T04:38:51;99655.99;;;22.32;26.99
77526;BME280;66627;29.424;-98.496;2023-10-08T04:41:16;99654.27;;;22.60;26.50
77526;BME280;66627;29.424;-98.496;2023-10-08T04:43:41;99649.84;;;22.67;26.91
77526;BME280;66627;29.424;-98.496;2023-10-08T04:46:06;99647.37;;;22.66;25.70
77526;BME280;66627;29.424;-98.496;2023-10-08T04:48:32;99648.99;;;21.98;26.87
77526;BME280;66627;29.424;-98.496;2023-10-08T04:50:57;99646.37;;;22.09;26.73
77526;BME280;66627;29.424;-98.496;2023-10-08T04:53:22;99645.52;;;22.23;26.26
77526;BME280;66627;29.424;-98.496;2023-10-08T04:55:47;99641.81;;;22.17;27.15
77526;BME280;66627;29.424;-98.496;2023-10-08T04:58:13;99638.13;;;21.81;26.96
77526;BME280;66627;29.424;-98.496;2023-10-08T05:00:38;99633.60;;;21.48;27.82
77526;BME280;66627;29.424;-98.496;2023-10-08T05:03:03;99633.86;;;21.02;27.74
77526;BME280;66627;29.424;-98.496;2023-10-08T05:05:28;99641.19;;;21.07;26.74
77526;BME280;66627;29.424;-98.496;2023-10-08T05:07:53;99640.14;;;21.34;27.26
77526;BME280;66627;29.424;-98.496;2023-10-08T05:10:19;99634.76;;;22.12;26.47
77526;BME280;66627;29.424;-98.496;2023-10-08T05:12:44;99628.74;;;21.49;27.30
77526;BME280;66627;29.424;-98.496;2023-10-08T05:15:09;99626.90;;;21.38;27.60
77526;BME280;66627;29.424;-98.496;2023-10-08T05:17:34;99631.21;;;21.54;27.64
77526;BME280;66627;29.424;-98.496;2023-10-08T05:19:59;99633.75;;;20.86;26.86
77526;BME280;66627;29.424;-98.496;2023-10-08T05:22:24;99630.37;;;21.38;28.56
77526;BME280;66627;29.424;-98.496;2023-10-08T05:24:50;99628.59;;;20.84;28.31
77526;BME280;66627;29.424;-98.496;2023-10-08T05:27:15;99612.85;;;20.92;27.12
77526;BME280;66627;29.424;-98.496;2023-10-08T05:29:40;99590.30;;;21.04;25.55
77526;BME280;66627;29.424;-98.496;2023-10-08T05:32:05;99576.78;;;20.02;25.81
77526;BME280;66627;29.424;-98.496;2023-10-08T05:34:30;99573.95;;;20.60;26.21
77526;BME280;66627;29.424;-98.496;2023-10-08T05:36:55;99577.50;;;21.03;26.81
77526;BME280;66627;29.424;-98.496;2023-10-08T05:39:21;99569.34;;;21.18;26.41
77526;BME280;66627;29.424;-98.496;2023-10-08T05:41:46;99575.89;;;21.73;24.89
77526;BME280;66627;29.424;-98.496;2023-10-08T05:44:11;99591.19;;;20.85;26.01
77526;BME280;66627;29.424;-98.496;2023-10-08T05:46:37;99600.02;;;21.79;25.50
77526;BME280;66627;29.424;-98.496;2023-10-08T05:49:01;99604.45;;;21.42;26.50
77526;BME280;66627;29.424;-98.496;2023-10-08T05:51:27;99600.18;;;21.22;26.93
77526;BME280;66627;29.424;-98.496;2023-10-08T05:53:52;99599.10;;;21.88;27.29
77526;BME280;66627;29.424;-98.496;2023-10-08T05:56:17;99595.56;;;21.70;27.20
77526;BME280;66627;29.424;-98.496;2023-10-08T05:58:42;99594.50;;;20.82;27.42
77526;BME280;66627;29.424;-98.496;2023-10-08T06:01:09;99585.67;;;20.95;26.74
77526;BME280;66627;29.424;-98.496;2023-10-08T06:03:33;99581.89;;;21.26;27.90
77526;BME280;66627;29.424;-98.496;2023-10-08T06:05:59;99576.63;;;20.43;27.54
77526;BME280;66627;29.424;-98.496;2023-10-08T06:08:23;99571.78;;;20.66;26.45
77526;BME280;66627;29.424;-98.496;2023-10-08T06:10:49;99564.15;;;21.09;27.31
77526;BME280;66627;29.424;-98.496;2023-10-08T06:13:14;99556.49;;;20.89;27.21
77526;BME280;66627;29.424;-98.496;2023-10-08T06:15:39;99555.64;;;21.42;27.70
77526;BME280;66627;29.424;-98.496;2023-10-08T06:18:04;99553.74;;;21.11;26.86
77526;BME280;66627;29.424;-98.496;2023-10-08T06:20:30;99558.81;;;21.45;26.86
77526;BME280;66627;29.424;-98.496;2023-10-08T06:22:55;99558.58;;;21.35;26.26
77526;BME280;66627;29.424;-98.496;2023-10-08T06:25:20;99560.97;;;21.65;25.98
77526;BME280;66627;29.424;-98.496;2023-10-08T06:27:45;99559.80;;;21.00;27.38
77526;BME280;66627;29.424;-98.496;2023-10-08T06:30:11;99560.87;;;20.81;25.96
77526;BME280;66627;29.424;-98.496;2023-10-08T06:32:35;99562.14;;;20.37;27.30
77526;BME280;66627;29.424;-98.496;2023-10-08T06:35:01;99565.71;;;20.65;26.70
77526;BME280;66627;29.424;-98.496;2023-10-08T06:37:26;99558.30;;;20.52;27.98
77526;BME280;66627;29.424;-98.496;2023-10-08T06:39:51;99558.06;;;21.19;27.88
77526;BME280;66627;29.424;-98.496;2023-10-08T06:42:17;99563.21;;;20.43;28.44
77526;BME280;66627;29.424;-98.496;2023-10-08T06:44:42;99564.02;;;20.93;28.03
77526;BME280;66627;29.424;-98.496;2023-10-08T06:47:07;99566.28;;;21.41;28.36
77526;BME280;66627;29.424;-98.496;2023-10-08T06:49:32;99567.79;;;21.15;26.70
77526;BME280;66627;29.424;-98.496;2023-10-08T06:51:58;99573.66;;;19.78;28.31
77526;BME280;66627;29.424;-98.496;2023-10-08T06:54:23;99579.77;;;20.29;28.75
77526;BME280;66627;29.424;-98.496;2023-10-08T06:56:48;99587.69;;;20.40;27.86
77526;BME280;66627;29.424;-98.496;2023-10-08T06:59:13;99593.26;;;20.99;27.68
77526;BME280;66627;29.424;-98.496;2023-10-08T07:01:38;99595.72;;;20.39;27.17
77526;BME280;66627;29.424;-98.496;2023-10-08T07:04:03;99592.90;;;20.71;27.29
77526;BME280;66627;29.424;-98.496;2023-10-08T07:06:29;99588.33;;;20.96;28.22
77526;BME280;66627;29.424;-98.496;2023-10-08T07:08:54;99584.16;;;20.27;28.49
77526;BME280;66627;29.424;-98.496;2023-10-08T07:11:19;99582.41;;;20.37;27.90
77526;BME280;66627;29.424;-98.496;2023-10-08T07:13:44;99580.20;;;20.59;27.13
77526;BME280;66627;29.424;-98.496;2023-10-08T07:16:09;99583.61;;;20.40;27.91
77526;BME280;66627;29.424;-98.496;2023-10-08T07:18:35;99582.49;;;20.16;27.94
77526;BME280;66627;29.424;-98.496;2023-10-08T07:21:00;99583.44;;;20.16;28.32
77526;BME280;66627;29.424;-98.496;2023-10-08T07:23:25;99589.11;;;20.53;27.45
77526;BME280;66627;29.424;-98.496;2023-10-08T07:25:54;99590.10;;;20.20;27.49
77526;BME280;66627;29.424;-98.496;2023-10-08T07:28:15;99587.04;;;20.01;28.17
77526;BME280;66627;29.424;-98.496;2023-10-08T07:30:40;99587.54;;;19.74;29.18
77526;BME280;66627;29.424;-98.496;2023-10-08T07:33:06;99584.02;;;19.37;28.86
77526;BME280;66627;29.424;-98.496;2023-10-08T07:35:37;99587.57;;;20.07;30.32
77526;BME280;66627;29.424;-98.496;2023-10-08T07:37:56;99586.06;;;20.28;28.57
77526;BME280;66627;29.424;-98.496;2023-10-08T07:40:21;99581.37;;;20.41;27.92
77526;BME280;66627;29.424;-98.496;2023-10-08T07:42:46;99582.68;;;20.23;28.98
77526;BME280;66627;29.424;-98.496;2023-10-08T07:45:12;99590.94;;;19.94;28.73
77526;BME280;66627;29.424;-98.496;2023-10-08T07:47:37;99592.78;;;19.57;28.32
77526;BME280;66627;29.424;-98.496;2023-10-08T07:52:27;99595.79;;;19.47;28.92
77526;BME280;66627;29.424;-98.496;2023-10-08T07:54:52;99592.77;;;19.93;28.23
77526;BME280;66627;29.424;-98.496;2023-10-08T07:57:18;99587.75;;;19.43;29.21
77526;BME280;66627;29.424;-98.496;2023-10-08T07:59:43;99581.79;;;19.41;28.78
77526;BME280;66627;29.424;-98.496;2023-10-08T08:02:09;99580.11;;;19.82;28.93
77526;BME280;66627;29.424;-98.496;2023-10-08T08:04:33;99579.00;;;19.78;27.94
77526;BME280;66627;29.424;-98.496;2023-10-08T08:06:58;99585.89;;;19.65;28.70
77526;BME280;66627;29.424;-98.496;2023-10-08T08:09:24;99585.22;;;19.64;28.67
77526;BME280;66627;29.424;-98.496;2023-10-08T08:11:49;99581.53;;;19.59;28.76
77526;BME280;66627;29.424;-98.496;2023-10-08T08:14:15;99586.74;;;19.34;28.95
77526;BME280;66627;29.424;-98.496;2023-10-08T08:16:39;99589.07;;;18.48;32.21
77526;BME280;66627;29.424;-98.496;2023-10-08T08:19:05;99584.28;;;19.01;30.32
77526;BME280;66627;29.424;-98.496;2023-10-08T08:21:30;99584.36;;;18.95;30.62
77526;BME280;66627;29.424;-98.496;2023-10-08T08:23:55;99584.62;;;19.40;31.39
77526;BME280;66627;29.424;-98.496;2023-10-08T08:26:21;99582.43;;;19.23;30.91
77526;BME280;66627;29.424;-98.496;2023-10-08T08:28:46;99583.04;;;18.82;32.28
77526;BME280;66627;29.424;-98.496;2023-10-08T08:31:10;99583.42;;;19.39;31.72
77526;BME280;66627;29.424;-98.496;2023-10-08T08:33:36;99582.35;;;19.36;31.04
77526;BME280;66627;29.424;-98.496;2023-10-08T08:36:01;99576.57;;;19.57;30.71
77526;BME280;66627;29.424;-98.496;2023-10-08T08:38:26;99575.22;;;19.60;30.80
77526;BME280;66627;29.424;-98.496;2023-10-08T08:40:51;99571.51;;;19.30;32.70
77526;BME280;66627;29.424;-98.496;2023-10-08T08:43:17;99564.03;;;18.94;31.94
77526;BME280;66627;29.424;-98.496;2023-10-08T08:45:42;99573.79;;;18.50;32.77
77526;BME280;66627;29.424;-98.496;2023-10-08T08:48:08;99576.04;;;18.58;31.18
77526;BME280;66627;29.424;-98.496;2023-10-08T08:50:35;99575.77;;;19.04;31.94
77526;BME280;66627;29.424;-98.496;2023-10-08T08:52:57;99575.24;;;18.84;32.20
77526;BME280;66627;29.424;-98.496;2023-10-08T08:55:23;99577.83;;;18.43;33.67
77526;BME280;66627;29.424;-98.496;2023-10-08T08:57:49;99571.22;;;19.02;31.66
77526;BME280;66627;29.424;-98.496;2023-10-08T09:00:14;99567.52;;;18.70;31.98
77526;BME280;66627;29.424;-98.496;2023-10-08T09:02:38;99565.96;;;18.35;32.95
77526;BME280;66627;29.424;-98.496;2023-10-08T09:05:04;99563.16;;;17.89;32.93
77526;BME280;66627;29.424;-98.496;2023-10-08T09:07:29;99565.92;;;18.27;34.06
77526;BME280;66627;29.424;-98.496;2023-10-08T09:09:57;99558.49;;;18.88;32.52
77526;BME280;66627;29.424;-98.496;2023-10-08T09:12:19;99555.84;;;18.54;33.40
77526;BME280;66627;29.424;-98.496;2023-10-08T09:14:44;99554.81;;;19.13;33.16
77526;BME280;66627;29.424;-98.496;2023-10-08T09:17:10;99548.68;;;18.86;34.54
77526;BME280;66627;29.424;-98.496;2023-10-08T09:19:37;99548.49;;;19.48;34.19
77526;BME280;66627;29.424;-98.496;2023-10-08T09:22:03;99552.45;;;18.76;35.06
77526;BME280;66627;29.424;-98.496;2023-10-08T09:24:25;99559.73;;;19.26;34.65
77526;BME280;66627;29.424;-98.496;2023-10-08T09:26:52;99558.44;;;19.21;33.41
77526;BME280;66627;29.424;-98.496;2023-10-08T09:29:16;99560.15;;;18.92;33.88
77526;BME280;66627;29.424;-98.496;2023-10-08T09:31:41;99560.27;;;18.69;33.84
77526;BME280;66627;29.424;-98.496;2023-10-08T09:34:07;99562.49;;;19.02;32.98
77526;BME280;66627;29.424;-98.496;2023-10-08T09:36:32;99563.26;;;19.31;32.93
77526;BME280;66627;29.424;-98.496;2023-10-08T09:38:58;99559.07;;;18.84;33.22
77526;BME280;66627;29.424;-98.496;2023-10-08T09:41:22;99562.60;;;18.70;33.46
77526;BME280;66627;29.424;-98.496;2023-10-08T09:43:48;99570.65;;;19.16;34.50
77526;BME280;66627;29.424;-98.496;2023-10-08T09:46:18;99575.96;;;18.88;35.83
77526;BME280;66627;29.424;-98.496;2023-10-08T09:48:39;99568.88;;;18.80;35.30
77526;BME280;66627;29.424;-98.496;2023-10-08T09:51:03;99571.31;;;18.93;34.67
77526;BME280;66627;29.424;-98.496;2023-10-08T09:53:35;99577.87;;;18.61;34.87
77526;BME280;66627;29.424;-98.496;2023-10-08T09:55:58;99582.61;;;18.77;35.98
77526;BME280;66627;29.424;-98.496;2023-10-08T09:58:19;99583.88;;;17.74;36.52
77526;BME280;66627;29.424;-98.496;2023-10-08T10:00:45;99582.45;;;18.43;35.56
77526;BME280;66627;29.424;-98.496;2023-10-08T10:03:09;99578.67;;;18.67;35.35
77526;BME280;66627;29.424;-98.496;2023-10-08T10:05:35;99573.69;;;18.53;35.37
77526;BME280;66627;29.424;-98.496;2023-10-08T10:07:59;99569.54;;;18.27;37.61
77526;BME280;66627;29.424;-98.496;2023-10-08T10:10:29;99570.68;;;18.03;38.00
77526;BME280;66627;29.424;-98.496;2023-10-08T10:12:50;99569.21;;;17.88;37.40
77526;BME280;66627;29.424;-98.496;2023-10-08T10:15:15;99575.16;;;17.74;36.44
77526;BME280;66627;29.424;-98.496;2023-10-08T10:17:41;99575.59;;;17.60;37.11
77526;BME280;66627;29.424;-98.496;2023-10-08T10:20:06;99580.32;;;18.08;35.77
77526;BME280;66627;29.424;-98.496;2023-10-08T10:22:33;99581.92;;;17.62;36.23
77526;BME280;66627;29.424;-98.496;2023-10-08T10:24:58;99581.26;;;17.46;35.98
77526;BME280;66627;29.424;-98.496;2023-10-08T10:27:22;99583.00;;;17.99;36.11
77526;BME280;66627;29.424;-98.496;2023-10-08T10:29:48;99583.48;;;17.95;35.34
77526;BME280;66627;29.424;-98.496;2023-10-08T10:32:14;99577.13;;;18.00;35.30
77526;BME280;66627;29.424;-98.496;2023-10-08T10:34:40;99570.14;;;18.24;34.41
77526;BME280;66627;29.424;-98.496;2023-10-08T10:37:05;99575.07;;;17.82;36.36
77526;BME280;66627;29.424;-98.496;2023-10-08T10:39:30;99573.70;;;17.83;35.81
77526;BME280;66627;29.424;-98.496;2023-10-08T10:41:57;99571.92;;;18.01;36.98
77526;BME280;66627;29.424;-98.496;2023-10-08T10:44:20;99578.69;;;17.57;36.21
77526;BME280;66627;29.424;-98.496;2023-10-08T10:46:55;99581.11;;;17.96;35.23
77526;BME280;66627;29.424;-98.496;2023-10-08T10:49:11;99578.98;;;16.83;37.82
77526;BME280;66627;29.424;-98.496;2023-10-08T10:51:36;99575.26;;;16.86;36.11
77526;BME280;66627;29.424;-98.496;2023-10-08T10:54:02;99574.00;;;16.59;37.75
77526;BME280;66627;29.424;-98.496;2023-10-08T10:56:27;99571.47;;;15.94;38.94
77526;BME280;66627;29.424;-98.496;2023-10-08T10:58:53;99572.19;;;15.99;39.19
77526;BME280;66627;29.424;-98.496;2023-10-08T11:01:18;99578.28;;;16.79;38.19
77526;BME280;66627;29.424;-98.496;2023-10-08T11:03:43;99584.80;;;16.20;39.81
77526;BME280;66627;29.424;-98.496;2023-10-08T11:06:08;99591.69;;;15.70;40.48
77526;BME280;66627;29.424;-98.496;2023-10-08T11:08:34;99596.05;;;15.73;39.51
77526;BME280;66627;29.424;-98.496;2023-10-08T11:10:59;99599.47;;;15.41;41.62
77526;BME280;66627;29.424;-98.496;2023-10-08T11:13:25;99607.38;;;14.89;42.49
77526;BME280;66627;29.424;-98.496;2023-10-08T11:15:51;99611.60;;;16.51;39.81
77526;BME280;66627;29.424;-98.496;2023-10-08T11:18:15;99619.45;;;16.59;40.33
77526;BME280;66627;29.424;-98.496;2023-10-08T11:20:40;99625.21;;;15.67;41.45
77526;BME280;66627;29.424;-98.496;2023-10-08T11:23:05;99626.30;;;14.89;42.87
77526;BME280;66627;29.424;-98.496;2023-10-08T11:25:30;99623.89;;;16.15;40.60
77526;BME280;66627;29.424;-98.496;2023-10-08T11:27:56;99630.75;;;16.41;41.71
77526;BME280;66627;29.424;-98.496;2023-10-08T11:30:21;99637.45;;;16.25;41.26
77526;BME280;66627;29.424;-98.496;2023-10-08T11:32:47;99638.00;;;15.88;41.67
77526;BME280;66627;29.424;-98.496;2023-10-08T11:35:15;99643.47;;;15.54;42.96
77526;BME280;66627;29.424;-98.496;2023-10-08T11:37:36;99649.33;;;14.70;43.17
77526;BME280;66627;29.424;-98.496;2023-10-08T11:40:02;99656.88;;;15.33;42.84
77526;BME280;66627;29.424;-98.496;2023-10-08T11:42:27;99666.24;;;15.33;43.11
77526;BME280;66627;29.424;-98.496;2023-10-08T11:44:52;99668.66;;;16.34;41.79
77526;BME280;66627;29.424;-98.496;2023-10-08T11:47:18;99667.06;;;16.47;40.04
77526;BME280;66627;29.424;-98.496;2023-10-08T11:49:43;99663.40;;;16.74;38.85
77526;BME280;66627;29.424;-98.496;2023-10-08T11:52:08;99658.94;;;16.28;39.86
77526;BME280;66627;29.424;-98.496;2023-10-08T11:54:33;99651.92;;;16.16;40.14
77526;BME280;66627;29.424;-98.496;2023-10-08T11:57:00;99648.28;;;16.36;39.36
77526;BME280;66627;29.424;-98.496;2023-10-08T11:59:24;99647.90;;;16.60;40.49
77526;BME280;66627;29.424;-98.496;2023-10-08T12:01:49;99644.83;;;16.62;40.79
77526;BME280;66627;29.424;-98.496;2023-10-08T12:04:14;99640.52;;;16.65;40.11
77526;BME280;66627;29.424;-98.496;2023-10-08T12:06:40;99636.92;;;16.27;40.77
77526;BME280;66627;29.424;-98.496;2023-10-08T12:09:06;99632.13;;;16.70;40.19
77526;BME280;66627;29.424;-98.496;2023-10-08T12:11:31;99633.71;;;16.06;41.63
77526;BME280;66627;29.424;-98.496;2023-10-08T12:13:56;99642.48;;;16.36;42.59
77526;BME280;66627;29.424;-98.496;2023-10-08T12:16:21;99649.41;;;16.54;41.48
77526;BME280;66627;29.424;-98.496;2023-10-08T12:18:47;99650.53;;;16.25;41.67
77526;BME280;66627;29.424;-98.496;2023-10-08T12:21:11;99651.58;;;16.40;41.65
77526;BME280;66627;29.424;-98.496;2023-10-08T12:23:37;99654.57;;;16.39;41.39
77526;BME280;66627;29.424;-98.496;2023-10-08T12:26:02;99655.25;;;16.47;40.23
77526;BME280;66627;29.424;-98.496;2023-10-08T12:28:27;99657.44;;;16.54;40.00
77526;BME280;66627;29.424;-98.496;2023-10-08T12:30:53;99656.01;;;16.26;40.27
77526;BME280;66627;29.424;-98.496;2023-10-08T12:33:18;99653.07;;;15.57;40.54